Decoded Metar for EHVL (VLIELAND ISLAND in NETHERLANDS) (IATA:N/A) | Meteo·Mobile Aviation Weather
aviador You're here:

EHVL Decoded Metar

VLIELAND ISLAND in NETHERLANDS
Report Time2019-10-19 21:25:00
UTC Time2019-10-19 22:00:34
Flight Rules vfr VFR
Wind260° at 12 kt
Visibility9999 m
Phenomena:N/A
Clouds:Few 044 Hf
Scattered 059 Hf
Overcast 220 Hf
Expected CloudBase > 1,200 ft AGL from Temp-Dew spread
Ceiling22,000 ft
Temp12°C (ISA -3)
Dew Point09°C (82% RH)
AAT7.5°C
QNH1003 hPa
Density Alt157 ft
Elevation16 ft
Report Wrong Elevation
Raw Report
EHVL 192125Z AUTO 26012KT 9999 FEW044 SCT059 OVC220 12/09 Q1003
BLU=

Extra information for EHVL:More info

Metar Taf Metar & Taf Last 4 Metars F.Rules Stats Wind Profile Meteogram Temp Stats Airport Information Weather charts Add Link Nearby VenuesMetar ALERT Operation Metar Decoded Social comments